createdAt,value
2018-08-16T00:00:28.049Z,5.53
2018-08-16T00:01:03.270Z,5.35
2018-08-16T00:01:37.671Z,5.10
2018-08-16T00:02:11.925Z,5.25
2018-08-16T00:02:46.686Z,5.75
2018-08-16T00:03:20.280Z,5.20
2018-08-16T00:03:53.894Z,5.20
2018-08-16T00:04:27.455Z,5.22
2018-08-16T00:05:01.064Z,5.00
2018-08-16T00:05:35.322Z,5.62
2018-08-16T00:06:08.975Z,5.60
2018-08-16T00:06:42.511Z,6.17
2018-08-16T00:07:16.086Z,5.47
2018-08-16T00:07:50.630Z,6.00
2018-08-16T00:08:24.157Z,5.62
2018-08-16T00:08:57.767Z,5.55
2018-08-16T00:09:31.329Z,5.67
2018-08-16T00:10:08.968Z,6.15
2018-08-16T00:10:42.619Z,5.80
2018-08-16T00:11:16.182Z,5.65
2018-08-16T00:11:49.690Z,5.70
2018-08-16T00:12:23.419Z,5.67
2018-08-16T00:12:57.041Z,6.28
2018-08-16T00:13:30.699Z,5.37
2018-08-16T00:14:04.432Z,5.30
2018-08-16T00:14:37.986Z,5.35
2018-08-16T00:15:11.640Z,6.00
2018-08-16T00:15:45.249Z,5.22
2018-08-16T00:16:18.868Z,5.45
2018-08-16T00:16:52.498Z,5.80
2018-08-16T00:17:26.333Z,5.97
2018-08-16T00:17:59.948Z,5.28
2018-08-16T00:18:34.391Z,5.60
2018-08-16T00:19:08.016Z,5.58
2018-08-16T00:19:41.969Z,5.22
2018-08-16T00:20:15.741Z,5.40
2018-08-16T00:20:49.325Z,5.70
2018-08-16T00:21:22.895Z,5.25
2018-08-16T00:21:56.468Z,5.90
2018-08-16T00:22:30.040Z,5.35
2018-08-16T00:23:03.786Z,5.50
2018-08-16T00:23:37.997Z,5.80
2018-08-16T00:24:11.616Z,6.03
2018-08-16T00:24:45.176Z,5.50
2018-08-16T00:25:18.783Z,5.45
2018-08-16T00:25:52.346Z,6.45
2018-08-16T00:26:26.400Z,5.72
2018-08-16T00:27:00.007Z,5.53
2018-08-16T00:27:33.596Z,5.40
2018-08-16T00:28:07.431Z,5.60
2018-08-16T00:28:40.919Z,5.10
2018-08-16T00:29:14.473Z,5.90
2018-08-16T00:29:48.007Z,5.30
2018-08-16T00:30:21.576Z,6.08
2018-08-16T00:30:55.071Z,5.60
2018-08-16T00:31:28.638Z,5.35
2018-08-16T00:32:02.194Z,5.62
2018-08-16T00:32:36.103Z,5.20
2018-08-16T00:33:09.685Z,5.55
2018-08-16T00:33:43.255Z,5.45
2018-08-16T00:34:16.844Z,5.62
2018-08-16T00:34:50.394Z,5.75
2018-08-16T00:35:24.517Z,5.55
2018-08-16T00:35:58.952Z,5.50
2018-08-16T00:36:33.750Z,5.50
2018-08-16T00:37:07.316Z,5.40
2018-08-16T00:37:40.886Z,5.72
2018-08-16T00:38:15.092Z,6.12
2018-08-16T00:38:48.607Z,6.03
2018-08-16T00:39:22.175Z,5.92
2018-08-16T00:39:56.551Z,5.10
2018-08-16T00:40:30.685Z,5.47
2018-08-16T00:41:04.242Z,5.50
2018-08-16T00:41:37.952Z,5.97
2018-08-16T00:42:12.367Z,5.58
2018-08-16T00:42:47.504Z,5.92
2018-08-16T00:43:21.005Z,6.10
2018-08-16T00:43:54.546Z,5.58
2018-08-16T00:44:28.141Z,5.60
2018-08-16T00:45:02.795Z,5.40
2018-08-16T00:45:36.981Z,5.65
2018-08-16T00:46:11.314Z,5.00
2018-08-16T00:46:45.746Z,5.55
2018-08-16T00:47:19.312Z,6.00
2018-08-16T00:47:54.147Z,5.45
2018-08-16T00:48:27.659Z,5.40
2018-08-16T00:49:01.227Z,5.33
2018-08-16T00:49:34.880Z,5.53
2018-08-16T00:50:10.743Z,5.50
2018-08-16T00:50:44.284Z,5.33
2018-08-16T00:51:17.843Z,5.20
2018-08-16T00:51:52.700Z,5.05
2018-08-16T00:52:26.248Z,5.78
2018-08-16T00:53:00.322Z,5.67
2018-08-16T00:53:33.868Z,5.30
2018-08-16T00:54:07.439Z,5.42
2018-08-16T00:54:41.004Z,5.53
2018-08-16T00:55:15.111Z,5.70
2018-08-16T00:55:48.772Z,5.53
2018-08-16T00:56:23.079Z,5.83
2018-08-16T00:56:56.669Z,5.92
2018-08-16T00:57:30.924Z,5.83
2018-08-16T00:58:04.813Z,4.90
2018-08-16T00:58:39.009Z,5.45
2018-08-16T00:59:12.560Z,5.30
2018-08-16T00:59:46.122Z,5.40
2018-08-16T01:00:19.678Z,5.60
2018-08-16T01:00:54.038Z,5.37
2018-08-16T01:01:28.430Z,5.25
2018-08-16T01:02:02.571Z,5.87
2018-08-16T01:02:36.858Z,5.30
2018-08-16T01:03:10.431Z,5.50
2018-08-16T01:03:43.970Z,5.60
2018-08-16T01:04:18.238Z,5.65
2018-08-16T01:04:51.957Z,5.22
2018-08-16T01:05:26.283Z,5.47
2018-08-16T01:06:00.499Z,5.62
2018-08-16T01:06:35.243Z,5.30
2018-08-16T01:07:08.831Z,5.08
2018-08-16T01:07:43.043Z,5.17
2018-08-16T01:08:16.625Z,5.20
2018-08-16T01:08:50.206Z,5.15
2018-08-16T01:09:23.736Z,5.30
2018-08-16T01:09:58.108Z,5.15
2018-08-16T01:10:32.660Z,5.03
2018-08-16T01:11:07.217Z,5.72
2018-08-16T01:11:41.414Z,5.95
2018-08-16T01:12:15.001Z,5.65
2018-08-16T01:12:49.551Z,5.08
2018-08-16T01:13:23.100Z,5.33
2018-08-16T01:13:56.780Z,5.03
2018-08-16T01:14:30.344Z,5.15
2018-08-16T01:15:04.812Z,5.50
2018-08-16T01:15:38.434Z,5.35
2018-08-16T01:16:11.995Z,4.90
2018-08-16T01:16:46.398Z,5.08
2018-08-16T01:17:19.960Z,5.20
2018-08-16T01:17:53.668Z,5.37
2018-08-16T01:18:27.230Z,5.10
2018-08-16T01:19:00.832Z,4.90
2018-08-16T01:19:34.360Z,5.30
2018-08-16T01:20:08.601Z,5.58
2018-08-16T01:20:42.274Z,5.05
2018-08-16T01:21:15.888Z,5.35
2018-08-16T01:21:49.551Z,5.37
2018-08-16T01:22:23.189Z,5.30
2018-08-16T01:22:58.243Z,5.42
2018-08-16T01:23:31.905Z,5.55
2018-08-16T01:24:05.513Z,5.25
2018-08-16T01:24:39.179Z,5.40
2018-08-16T01:25:13.130Z,5.53
2018-08-16T01:25:46.779Z,5.30
2018-08-16T01:26:21.021Z,5.10
2018-08-16T01:26:54.849Z,5.60
2018-08-16T01:27:28.439Z,5.50
2018-08-16T01:28:02.069Z,5.10
2018-08-16T01:28:35.599Z,5.62
2018-08-16T01:29:10.420Z,5.05
2018-08-16T01:29:43.980Z,5.10
2018-08-16T01:30:17.523Z,5.55
2018-08-16T01:30:51.130Z,5.47
2018-08-16T01:31:24.898Z,5.20
2018-08-16T01:31:58.597Z,5.47
2018-08-16T01:32:33.380Z,5.65
2018-08-16T01:33:06.971Z,5.45
2018-08-16T01:33:40.590Z,5.20
2018-08-16T01:34:14.557Z,5.42
2018-08-16T01:34:48.149Z,5.70
2018-08-16T01:35:22.665Z,5.40
2018-08-16T01:35:56.271Z,5.60
2018-08-16T01:36:30.387Z,5.33
2018-08-16T01:37:04.705Z,5.50
2018-08-16T01:37:38.815Z,5.92
2018-08-16T01:38:12.356Z,5.50
2018-08-16T01:38:46.288Z,5.15
2018-08-16T01:39:19.896Z,5.28
2018-08-16T01:39:53.467Z,5.50
2018-08-16T01:40:27.101Z,5.30
2018-08-16T01:41:01.359Z,5.30
2018-08-16T01:41:34.947Z,5.55
2018-08-16T01:42:09.000Z,5.15
2018-08-16T01:42:42.484Z,4.80
2018-08-16T01:43:16.091Z,5.50
2018-08-16T01:43:49.680Z,5.35
2018-08-16T01:44:23.260Z,5.12
2018-08-16T01:44:57.609Z,5.03
2018-08-16T01:45:31.322Z,5.03
2018-08-16T01:46:05.591Z,5.22
2018-08-16T01:46:39.140Z,5.08
2018-08-16T01:47:13.376Z,4.92
2018-08-16T01:47:46.905Z,5.40
2018-08-16T01:48:20.457Z,5.37
2018-08-16T01:48:54.125Z,4.92
2018-08-16T01:49:30.710Z,5.47
2018-08-16T01:50:05.130Z,5.65
2018-08-16T01:50:38.647Z,5.42
2018-08-16T01:51:12.291Z,5.47
2018-08-16T01:51:45.986Z,5.83
2018-08-16T01:52:19.539Z,5.58
2018-08-16T01:52:53.111Z,5.55
2018-08-16T01:53:27.383Z,5.58
2018-08-16T01:54:00.969Z,5.15
2018-08-16T01:54:34.797Z,5.00
2018-08-16T01:55:08.672Z,5.50
2018-08-16T01:55:42.232Z,5.58
2018-08-16T01:56:17.180Z,4.92
2018-08-16T01:56:51.623Z,5.70
2018-08-16T01:57:25.274Z,5.80
2018-08-16T01:57:58.836Z,5.62
2018-08-16T01:58:32.382Z,5.55
2018-08-16T01:59:06.021Z,5.80
2018-08-16T01:59:39.611Z,5.45
2018-08-16T02:00:13.280Z,5.33
2018-08-16T02:00:46.952Z,5.35
2018-08-16T02:01:20.528Z,5.50
2018-08-16T02:01:54.327Z,5.22
2018-08-16T02:02:27.882Z,5.72
2018-08-16T02:03:01.476Z,5.40
2018-08-16T02:03:35.768Z,5.60
2018-08-16T02:04:09.329Z,5.72
2018-08-16T02:04:42.936Z,6.20
2018-08-16T02:05:16.592Z,5.40
2018-08-16T02:05:50.168Z,5.28
2018-08-16T02:06:23.764Z,5.50
2018-08-16T02:06:57.440Z,5.67
2018-08-16T02:07:31.049Z,5.20
2018-08-16T02:08:05.165Z,5.83
2018-08-16T02:08:38.687Z,5.60
2018-08-16T02:09:12.216Z,5.37
2018-08-16T02:09:45.852Z,6.10
2018-08-16T02:10:20.186Z,5.80
2018-08-16T02:10:54.491Z,6.08
2018-08-16T02:11:28.667Z,5.42
2018-08-16T02:12:02.204Z,5.67
2018-08-16T02:12:35.892Z,5.87
2018-08-16T02:13:09.782Z,5.72
2018-08-16T02:13:43.331Z,5.70
2018-08-16T02:14:17.479Z,5.58
2018-08-16T02:14:51.081Z,6.22
2018-08-16T02:15:24.731Z,5.92
2018-08-16T02:16:14.829Z,6.20
2018-08-16T02:16:55.842Z,5.70
2018-08-16T02:17:30.074Z,6.05
2018-08-16T02:18:04.193Z,5.42
2018-08-16T02:18:38.910Z,6.53
2018-08-16T02:19:13.259Z,6.08
2018-08-16T02:19:46.793Z,5.97
2018-08-16T02:20:21.537Z,6.17
2018-08-16T02:20:55.636Z,6.37
2018-08-16T02:21:30.552Z,6.45
2018-08-16T02:22:04.271Z,5.75
2018-08-16T02:22:38.523Z,5.90
2018-08-16T02:23:12.973Z,6.47
2018-08-16T02:23:46.968Z,6.20
2018-08-16T02:24:20.622Z,6.03
2018-08-16T02:24:54.203Z,5.83
2018-08-16T02:25:29.475Z,6.22
2018-08-16T02:26:03.227Z,6.35
2018-08-16T02:26:37.080Z,6.22
2018-08-16T02:27:10.685Z,6.17
2018-08-16T02:27:45.026Z,6.17
2018-08-16T02:28:18.568Z,6.35
2018-08-16T02:28:52.627Z,6.28
2018-08-16T02:29:26.324Z,5.78
2018-08-16T02:30:00.347Z,6.40
2018-08-16T02:30:33.993Z,6.25
2018-08-16T02:31:07.591Z,6.28
2018-08-16T02:31:41.624Z,5.92
2018-08-16T02:32:15.260Z,6.78
2018-08-16T02:32:49.429Z,6.35
2018-08-16T02:33:22.997Z,5.70
2018-08-16T02:33:56.709Z,6.90
2018-08-16T02:34:30.310Z,6.65
2018-08-16T02:35:03.963Z,6.58
2018-08-16T02:35:37.592Z,6.67
2018-08-16T02:36:11.793Z,6.62
2018-08-16T02:36:45.323Z,6.15
2018-08-16T02:37:18.889Z,6.75
2018-08-16T02:37:52.420Z,6.70
2018-08-16T02:38:25.935Z,7.45
2018-08-16T02:38:59.564Z,6.95
2018-08-16T02:39:33.120Z,6.37
2018-08-16T02:40:08.089Z,5.65
2018-08-16T02:40:41.672Z,6.15
2018-08-16T02:41:15.534Z,6.72
2018-08-16T02:41:49.583Z,6.05
2018-08-16T02:42:23.767Z,6.45
2018-08-16T02:42:58.224Z,6.45
2018-08-16T02:43:31.793Z,6.70
2018-08-16T02:44:05.646Z,7.20
2018-08-16T02:44:39.161Z,6.50
2018-08-16T02:45:13.018Z,6.97
2018-08-16T02:45:46.613Z,6.50
2018-08-16T02:46:21.121Z,6.60
2018-08-16T02:46:54.694Z,7.33
2018-08-16T02:47:28.264Z,7.03
2018-08-16T02:48:01.813Z,6.70
2018-08-16T02:48:35.387Z,6.45
2018-08-16T02:49:09.703Z,6.20
2018-08-16T02:49:43.938Z,6.25
2018-08-16T02:50:17.575Z,6.75
2018-08-16T02:50:51.136Z,6.62
2018-08-16T02:51:24.808Z,7.30
2018-08-16T02:51:58.350Z,6.67
2018-08-16T02:52:32.510Z,6.30
2018-08-16T02:53:06.313Z,6.28
2018-08-16T02:53:39.842Z,6.60
2018-08-16T02:54:14.171Z,6.45
2018-08-16T02:54:47.731Z,6.83
2018-08-16T02:55:22.742Z,6.65
2018-08-16T02:55:56.394Z,6.37
2018-08-16T02:56:30.069Z,6.25
2018-08-16T02:57:03.747Z,7.20
2018-08-16T02:57:37.982Z,6.62
2018-08-16T02:58:12.208Z,7.05
2018-08-16T02:58:45.807Z,6.40
2018-08-16T02:59:19.974Z,6.65
2018-08-16T02:59:53.956Z,6.08
2018-08-16T03:00:27.511Z,6.70
2018-08-16T03:01:01.197Z,6.40
2018-08-16T03:01:35.276Z,6.58
2018-08-16T03:02:08.900Z,6.42
2018-08-16T03:02:42.460Z,7.17
2018-08-16T03:03:16.441Z,7.30
2018-08-16T03:03:50.793Z,6.33
2018-08-16T03:04:24.344Z,7.10
2018-08-16T03:04:59.838Z,6.90
2018-08-16T03:05:33.439Z,7.03
2018-08-16T03:06:07.493Z,6.97
2018-08-16T03:06:41.183Z,6.85
2018-08-16T03:07:14.820Z,7.10
2018-08-16T03:07:48.352Z,6.58
2018-08-16T03:08:21.875Z,6.90
2018-08-16T03:08:55.393Z,6.75
2018-08-16T03:09:29.098Z,7.22
2018-08-16T03:10:02.676Z,6.72
2018-08-16T03:10:36.296Z,6.97
2018-08-16T03:11:11.809Z,6.92
2018-08-16T03:11:45.354Z,7.08
2018-08-16T03:12:18.980Z,6.97
2018-08-16T03:12:52.589Z,6.97
2018-08-16T03:13:26.318Z,6.95
2018-08-16T03:14:00.725Z,6.62
2018-08-16T03:14:34.255Z,6.80
2018-08-16T03:15:09.431Z,6.90
2018-08-16T03:15:43.822Z,6.53
2018-08-16T03:16:17.444Z,6.60
2018-08-16T03:16:51.785Z,6.33
2018-08-16T03:17:25.686Z,6.65
2018-08-16T03:17:59.325Z,6.67
2018-08-16T03:18:32.909Z,6.45
2018-08-16T03:19:06.549Z,6.80
2018-08-16T03:19:40.188Z,6.70
2018-08-16T03:20:13.801Z,6.70
2018-08-16T03:20:47.375Z,7.20
2018-08-16T03:21:20.927Z,7.35
2018-08-16T03:21:54.523Z,6.97
2018-08-16T03:22:28.076Z,7.22
2018-08-16T03:23:02.299Z,6.85
2018-08-16T03:23:35.859Z,7.00
2018-08-16T03:24:09.390Z,7.20
2018-08-16T03:24:43.001Z,6.65
2018-08-16T03:25:16.575Z,6.70
2018-08-16T03:25:50.147Z,7.17
2018-08-16T03:26:24.202Z,7.40
2018-08-16T03:26:57.775Z,7.12
2018-08-16T03:27:31.327Z,7.08
2018-08-16T03:28:05.357Z,7.35
2018-08-16T03:28:38.928Z,7.20
2018-08-16T03:29:13.197Z,6.50
2018-08-16T03:29:47.050Z,6.70
2018-08-16T03:30:20.567Z,6.17
2018-08-16T03:30:54.245Z,6.58
2018-08-16T03:31:27.827Z,6.33
2018-08-16T03:32:02.333Z,6.20
2018-08-16T03:32:35.945Z,6.58
2018-08-16T03:33:09.727Z,6.10
2018-08-16T03:33:43.342Z,6.87
2018-08-16T03:34:16.942Z,6.10
2018-08-16T03:34:50.560Z,6.37
2018-08-16T03:35:24.690Z,6.45
2018-08-16T03:35:58.275Z,6.47
2018-08-16T03:36:31.855Z,6.75
2018-08-16T03:37:05.521Z,7.35
2018-08-16T03:37:39.733Z,6.55
2018-08-16T03:38:13.948Z,6.95
2018-08-16T03:38:47.499Z,6.80
2018-08-16T03:39:21.063Z,6.78
2018-08-16T03:39:54.660Z,6.70
2018-08-16T03:40:28.255Z,7.28
2018-08-16T03:41:02.297Z,6.90
2018-08-16T03:41:36.156Z,6.25
2018-08-16T03:42:10.477Z,6.87
2018-08-16T03:42:44.105Z,6.90
2018-08-16T03:43:17.648Z,7.17
2018-08-16T03:43:51.140Z,7.40
2018-08-16T03:44:24.733Z,7.17
2018-08-16T03:44:58.328Z,7.22
2018-08-16T03:45:31.895Z,7.92
2018-08-16T03:46:07.157Z,7.30
2018-08-16T03:46:40.770Z,7.65
2018-08-16T03:47:14.252Z,7.75
2018-08-16T03:47:48.344Z,7.30
2018-08-16T03:48:22.493Z,7.50
2018-08-16T03:48:56.068Z,7.42
2018-08-16T03:49:29.933Z,7.08
2018-08-16T03:50:03.563Z,7.85
2018-08-16T03:50:37.084Z,7.60
2018-08-16T03:51:10.645Z,7.92
2018-08-16T03:51:45.846Z,6.92
2018-08-16T03:52:20.017Z,7.70
2018-08-16T03:52:53.594Z,7.45
2018-08-16T03:53:27.111Z,7.28
2018-08-16T03:54:00.730Z,7.90
2018-08-16T03:54:34.406Z,7.30
2018-08-16T03:55:08.123Z,7.20
2018-08-16T03:55:42.513Z,7.20
2018-08-16T03:56:16.120Z,7.15
2018-08-16T03:56:49.656Z,7.25
2018-08-16T03:57:23.865Z,7.28
2018-08-16T03:57:57.438Z,7.20
2018-08-16T03:58:32.402Z,7.60
2018-08-16T03:59:06.709Z,7.15
2018-08-16T03:59:40.301Z,7.35
2018-08-16T04:00:14.670Z,7.28
2018-08-16T04:00:48.309Z,7.37
2018-08-16T04:01:21.848Z,7.35
2018-08-16T04:01:55.314Z,7.00
2018-08-16T04:02:29.526Z,7.55
2018-08-16T04:03:03.065Z,7.70
2018-08-16T04:03:36.735Z,7.33
2018-08-16T04:04:10.867Z,6.80
2018-08-16T04:04:44.397Z,7.80
2018-08-16T04:05:17.972Z,7.58
2018-08-16T04:05:51.484Z,8.18
2018-08-16T04:06:25.012Z,7.22
2018-08-16T04:06:58.572Z,7.62
2018-08-16T04:07:32.105Z,6.87
2018-08-16T04:08:05.715Z,7.15
2018-08-16T04:08:39.339Z,7.35
2018-08-16T04:09:12.886Z,6.78
2018-08-16T04:09:47.161Z,7.47
2018-08-16T04:10:20.686Z,7.37
2018-08-16T04:10:54.611Z,7.22
2018-08-16T04:11:29.444Z,6.37
2018-08-16T04:12:03.480Z,6.67
2018-08-16T04:12:37.495Z,7.00
2018-08-16T04:13:11.399Z,7.22
2018-08-16T04:13:45.014Z,6.72
2018-08-16T04:14:19.308Z,7.10
2018-08-16T04:14:52.891Z,7.00
2018-08-16T04:15:26.584Z,7.10
2018-08-16T04:16:00.179Z,7.37
2018-08-16T04:16:33.797Z,7.12
2018-08-16T04:17:07.403Z,7.00
2018-08-16T04:17:40.984Z,7.62
2018-08-16T04:18:14.529Z,6.92
2018-08-16T04:18:48.693Z,7.20
2018-08-16T04:19:22.261Z,6.60
2018-08-16T04:19:55.868Z,6.55
2018-08-16T04:20:29.498Z,6.80
2018-08-16T04:21:03.683Z,6.92
2018-08-16T04:21:38.435Z,7.20
2018-08-16T04:22:12.432Z,7.05
2018-08-16T04:22:46.479Z,7.08
2018-08-16T04:23:21.220Z,7.15
2018-08-16T04:23:55.625Z,6.97
2018-08-16T04:24:29.215Z,6.78
2018-08-16T04:25:03.584Z,7.15
2018-08-16T04:25:37.160Z,7.50
2018-08-16T04:26:10.729Z,7.25
2018-08-16T04:26:44.268Z,6.75
2018-08-16T04:27:18.472Z,7.42
2018-08-16T04:27:52.758Z,7.05
2018-08-16T04:28:26.347Z,7.78
2018-08-16T04:29:00.487Z,6.83
2018-08-16T04:29:34.116Z,7.05
2018-08-16T04:30:07.724Z,7.30
2018-08-16T04:30:41.284Z,7.15
2018-08-16T04:31:15.424Z,7.10
2018-08-16T04:31:49.591Z,7.15
2018-08-16T04:32:23.888Z,7.17
2018-08-16T04:32:57.435Z,7.37
2018-08-16T04:33:31.004Z,7.28
2018-08-16T04:34:04.573Z,6.95
2018-08-16T04:34:38.100Z,6.87
2018-08-16T04:35:11.760Z,7.00
2018-08-16T04:35:45.283Z,7.20
2018-08-16T04:36:20.009Z,7.37
2018-08-16T04:36:54.055Z,6.25
2018-08-16T04:37:27.620Z,6.72
2018-08-16T04:38:01.127Z,7.20
2018-08-16T04:38:34.675Z,7.08
2018-08-16T04:39:09.688Z,7.20
2018-08-16T04:39:43.247Z,6.80
2018-08-16T04:40:16.820Z,7.15
2018-08-16T04:40:50.374Z,7.60
2018-08-16T04:41:24.476Z,6.78
2018-08-16T04:41:58.174Z,7.50
2018-08-16T04:42:31.645Z,7.45
2018-08-16T04:43:05.739Z,7.45
2018-08-16T04:43:39.260Z,7.45
2018-08-16T04:44:12.851Z,7.42
2018-08-16T04:44:46.380Z,7.28
2018-08-16T04:45:19.959Z,7.17
2018-08-16T04:45:53.534Z,6.92
2018-08-16T04:46:27.097Z,7.85
2018-08-16T04:47:01.215Z,7.50
2018-08-16T04:47:34.874Z,7.87
2018-08-16T04:48:08.872Z,7.22
2018-08-16T04:48:42.505Z,7.17
2018-08-16T04:49:16.149Z,7.47
2018-08-16T04:49:50.171Z,7.53
2018-08-16T04:50:23.759Z,7.22
2018-08-16T04:50:58.060Z,7.03
2018-08-16T04:51:32.383Z,7.40
2018-08-16T04:52:06.445Z,7.92
2018-08-16T04:52:40.590Z,7.65
2018-08-16T04:53:14.186Z,7.42
2018-08-16T04:53:47.717Z,7.62
2018-08-16T04:54:22.260Z,7.80
2018-08-16T04:54:55.803Z,7.00
2018-08-16T04:55:29.394Z,7.55
2018-08-16T04:56:02.993Z,8.03
2018-08-16T04:56:36.576Z,7.62
2018-08-16T04:57:11.465Z,7.72
2018-08-16T04:57:45.055Z,8.25
2018-08-16T04:58:18.677Z,7.80
2018-08-16T04:58:52.249Z,7.78
2018-08-16T04:59:25.873Z,7.90
2018-08-16T04:59:59.489Z,7.70
2018-08-16T05:00:33.046Z,7.30
2018-08-16T05:01:06.968Z,8.03
2018-08-16T05:01:40.583Z,7.20
2018-08-16T05:02:14.784Z,7.30
2018-08-16T05:02:48.932Z,8.20
2018-08-16T05:03:22.508Z,7.58
2018-08-16T05:03:56.630Z,7.72
2018-08-16T05:04:30.264Z,7.65
2018-08-16T05:05:05.075Z,7.90
2018-08-16T05:05:38.715Z,7.95
2018-08-16T05:06:12.980Z,7.47
2018-08-16T05:06:46.606Z,7.53
2018-08-16T05:07:20.964Z,7.53
2018-08-16T05:07:54.580Z,7.95
2018-08-16T05:08:28.844Z,7.42
2018-08-16T05:09:02.562Z,7.62
2018-08-16T05:09:36.213Z,7.80
2018-08-16T05:10:10.888Z,7.83
2018-08-16T05:10:45.131Z,7.35
2018-08-16T05:11:18.885Z,7.50
2018-08-16T05:11:52.550Z,6.92
2018-08-16T05:12:26.261Z,7.45
2018-08-16T05:12:59.961Z,7.50
2018-08-16T05:13:33.561Z,7.62
2018-08-16T05:14:07.161Z,7.95
2018-08-16T05:14:40.764Z,8.08
2018-08-16T05:15:14.403Z,7.90
2018-08-16T05:15:47.973Z,7.70
2018-08-16T05:16:21.636Z,7.37
2018-08-16T05:16:55.262Z,8.43
2018-08-16T05:17:29.104Z,7.75
2018-08-16T05:18:02.708Z,8.28
2018-08-16T05:18:36.279Z,8.10
2018-08-16T05:19:09.996Z,7.92
2018-08-16T05:19:43.593Z,8.30
2018-08-16T05:20:17.145Z,7.75
2018-08-16T05:20:50.698Z,7.55
2018-08-16T05:21:24.709Z,7.58
2018-08-16T05:21:58.907Z,7.58
2018-08-16T05:22:33.019Z,7.67
2018-08-16T05:23:06.563Z,7.17
2018-08-16T05:23:40.140Z,7.85
2018-08-16T05:24:13.734Z,7.72
2018-08-16T05:24:47.260Z,8.15
2018-08-16T05:25:21.695Z,7.97
2018-08-16T05:25:55.273Z,8.45
2018-08-16T05:26:29.887Z,7.47
2018-08-16T05:27:04.039Z,8.25
2018-08-16T05:27:38.371Z,8.48
2018-08-16T05:28:11.968Z,8.15
2018-08-16T05:28:45.487Z,8.23
2018-08-16T05:29:19.060Z,8.20
2018-08-16T05:29:52.688Z,8.60
2018-08-16T05:30:26.372Z,7.80
2018-08-16T05:30:59.935Z,8.00
2018-08-16T05:31:33.565Z,8.18
2018-08-16T05:32:07.135Z,8.50
2018-08-16T05:32:41.073Z,8.00
2018-08-16T05:33:14.646Z,8.68
2018-08-16T05:33:48.293Z,8.33
2018-08-16T05:34:22.498Z,7.90
2018-08-16T05:34:56.879Z,8.13
2018-08-16T05:35:31.194Z,8.53
2018-08-16T05:36:04.901Z,8.88
2018-08-16T05:36:38.932Z,8.38
2018-08-16T05:37:13.429Z,8.10
2018-08-16T05:37:46.994Z,8.88
2018-08-16T05:38:20.651Z,8.80
2018-08-16T05:38:54.208Z,8.40
2018-08-16T05:39:27.880Z,8.23
2018-08-16T05:40:01.476Z,8.35
2018-08-16T05:40:35.072Z,8.28
2018-08-16T05:41:09.470Z,8.48
2018-08-16T05:41:43.025Z,8.50
2018-08-16T05:42:17.027Z,8.95
2018-08-16T05:42:50.640Z,7.97
2018-08-16T05:43:24.282Z,8.53
2018-08-16T05:43:57.769Z,8.78
2018-08-16T05:44:31.394Z,8.10
2018-08-16T05:45:05.686Z,8.33
2018-08-16T05:45:39.285Z,7.90
2018-08-16T05:46:12.892Z,8.40
2018-08-16T05:46:46.455Z,8.15
2018-08-16T05:47:20.032Z,8.90
2018-08-16T05:47:54.179Z,8.10
2018-08-16T05:48:27.732Z,8.93
2018-08-16T05:49:01.618Z,8.65
2018-08-16T05:49:35.288Z,8.13
2018-08-16T05:50:11.905Z,9.00
2018-08-16T05:50:45.576Z,9.03
2018-08-16T05:51:19.127Z,9.15
2018-08-16T05:51:53.900Z,8.68
2018-08-16T05:52:28.996Z,8.90
2018-08-16T05:53:02.600Z,8.68
2018-08-16T05:53:36.507Z,8.73
2018-08-16T05:54:10.087Z,8.73
2018-08-16T05:54:43.656Z,9.30
2018-08-16T05:55:17.356Z,8.35
2018-08-16T05:55:50.991Z,8.75
2018-08-16T05:56:24.921Z,8.15
2018-08-16T05:56:58.561Z,8.18
2018-08-16T05:57:32.711Z,8.33
2018-08-16T05:58:07.048Z,8.65
2018-08-16T05:58:40.653Z,7.55
2018-08-16T05:59:14.262Z,8.50
2018-08-16T05:59:47.836Z,8.45
2018-08-16T06:00:21.499Z,8.38
2018-08-16T06:00:56.116Z,8.03
2018-08-16T06:01:30.376Z,8.45
2018-08-16T06:02:04.036Z,8.63
2018-08-16T06:02:38.290Z,8.10
2018-08-16T06:03:12.175Z,8.43
2018-08-16T06:03:45.917Z,8.25
2018-08-16T06:04:20.680Z,8.03
2018-08-16T06:04:54.249Z,7.87
2018-08-16T06:05:27.822Z,8.00
2018-08-16T06:06:01.496Z,8.28
2018-08-16T06:06:35.660Z,8.60
2018-08-16T06:07:09.399Z,8.58
2018-08-16T06:07:43.144Z,8.25
2018-08-16T06:08:16.935Z,8.35
2018-08-16T06:08:50.591Z,8.35
2018-08-16T06:09:24.184Z,8.70
2018-08-16T06:09:58.685Z,7.87
2018-08-16T06:10:32.366Z,8.65
2018-08-16T06:11:06.036Z,8.28
2018-08-16T06:11:41.297Z,7.58
2018-08-16T06:12:14.949Z,8.25
2018-08-16T06:12:48.468Z,8.73
2018-08-16T06:13:22.177Z,8.18
2018-08-16T06:13:55.843Z,8.50
2018-08-16T06:14:29.436Z,8.70
2018-08-16T06:15:03.081Z,7.87
2018-08-16T06:15:36.824Z,7.87
2018-08-16T06:16:10.400Z,8.13
2018-08-16T06:16:44.008Z,7.97
2018-08-16T06:17:18.510Z,8.43
2018-08-16T06:17:52.078Z,8.08
2018-08-16T06:18:25.983Z,8.10
2018-08-16T06:19:00.224Z,7.75
2018-08-16T06:19:33.832Z,7.95
2018-08-16T06:20:10.615Z,8.00
2018-08-16T06:20:44.857Z,7.97
2018-08-16T06:21:18.580Z,8.40
2018-08-16T06:21:52.310Z,8.30
2018-08-16T06:22:26.596Z,7.78
2018-08-16T06:23:01.759Z,7.97
2018-08-16T06:23:35.808Z,7.97
2018-08-16T06:24:09.446Z,7.53
2018-08-16T06:24:43.214Z,7.90
2018-08-16T06:25:17.393Z,7.72
2018-08-16T06:25:51.368Z,7.97
2018-08-16T06:26:25.718Z,7.70
2018-08-16T06:27:00.225Z,7.40
2018-08-16T06:27:34.525Z,8.13
2018-08-16T06:28:08.612Z,8.48
2018-08-16T06:28:42.253Z,7.92
2018-08-16T06:29:16.315Z,7.87
2018-08-16T06:29:49.899Z,8.20
2018-08-16T06:30:23.590Z,8.13
2018-08-16T06:30:57.258Z,8.43
2018-08-16T06:31:31.463Z,8.00
2018-08-16T06:32:05.447Z,7.78
2018-08-16T06:32:39.043Z,7.53
2018-08-16T06:33:12.601Z,8.28
2018-08-16T06:33:46.399Z,8.20
2018-08-16T06:34:21.371Z,8.20
2018-08-16T06:34:56.965Z,7.67
2018-08-16T06:35:30.638Z,8.40
2018-08-16T06:36:05.804Z,8.18
2018-08-16T06:36:40.228Z,7.70
2018-08-16T06:37:13.855Z,7.70
2018-08-16T06:37:47.559Z,7.72
2018-08-16T06:38:21.183Z,7.97
2018-08-16T06:38:54.889Z,7.60
2018-08-16T06:39:28.978Z,7.83
2018-08-16T06:40:04.097Z,8.30
2018-08-16T06:40:37.740Z,8.80
2018-08-16T06:41:11.964Z,7.95
2018-08-16T06:41:46.198Z,8.15
2018-08-16T06:42:20.507Z,8.70
2018-08-16T06:42:54.800Z,8.08
2018-08-16T06:43:28.376Z,8.05
2018-08-16T06:44:02.033Z,7.72
2018-08-16T06:44:35.812Z,8.78
2018-08-16T06:45:10.435Z,7.83
2018-08-16T06:45:44.241Z,8.08
2018-08-16T06:46:18.604Z,7.97
2018-08-16T06:46:52.132Z,7.78
2018-08-16T06:47:26.316Z,8.10
2018-08-16T06:48:00.575Z,8.03
2018-08-16T06:48:34.872Z,8.43
2018-08-16T06:49:08.841Z,8.20
2018-08-16T06:49:42.423Z,7.97
2018-08-16T06:50:16.049Z,8.10
2018-08-16T06:50:49.618Z,8.73
2018-08-16T06:51:23.132Z,8.28
2018-08-16T06:51:56.812Z,7.87
2018-08-16T06:52:30.463Z,8.10
2018-08-16T06:53:04.059Z,8.05
2018-08-16T06:53:37.577Z,7.90
2018-08-16T06:54:11.284Z,8.15
2018-08-16T06:54:44.848Z,7.75
2018-08-16T06:55:18.416Z,8.18
2018-08-16T06:55:51.999Z,7.75
2018-08-16T06:56:25.617Z,7.67
2018-08-16T06:56:59.220Z,8.03
2018-08-16T06:57:32.815Z,8.60
2018-08-16T06:58:06.448Z,7.60
2018-08-16T06:58:40.115Z,8.33
2018-08-16T06:59:14.244Z,7.85
2018-08-16T06:59:47.993Z,9.23
2018-08-16T07:00:22.419Z,8.45
2018-08-16T07:00:56.716Z,7.70
2018-08-16T07:01:30.288Z,8.30
2018-08-16T07:02:05.140Z,8.33
2018-08-16T07:02:38.817Z,8.20
2018-08-16T07:03:12.393Z,7.53
2018-08-16T07:03:46.449Z,7.92
2018-08-16T07:04:20.152Z,8.53
2018-08-16T07:04:54.098Z,8.18
2018-08-16T07:05:27.778Z,8.40
2018-08-16T07:06:01.416Z,8.10
2018-08-16T07:06:37.375Z,8.43
2018-08-16T07:07:11.004Z,7.97
2018-08-16T07:07:45.075Z,8.15
2018-08-16T07:08:19.188Z,8.40
2018-08-16T07:08:52.808Z,8.68
2018-08-16T07:09:27.243Z,9.00
2018-08-16T07:10:00.953Z,8.48
2018-08-16T07:10:34.522Z,8.75
2018-08-16T07:11:08.743Z,8.75
2018-08-16T07:11:42.373Z,8.58
2018-08-16T07:12:16.010Z,7.92
2018-08-16T07:12:49.647Z,9.08
2018-08-16T07:13:24.188Z,8.93
2018-08-16T07:13:57.771Z,8.40
2018-08-16T07:14:32.775Z,8.58
2018-08-16T07:15:10.990Z,8.40
2018-08-16T07:15:44.621Z,8.85
2018-08-16T07:16:18.959Z,8.80
2018-08-16T07:16:52.495Z,8.70
2018-08-16T07:17:26.036Z,7.78
2018-08-16T07:17:59.619Z,7.85
2018-08-16T07:18:33.233Z,8.23
2018-08-16T07:19:06.827Z,7.90
2018-08-16T07:19:40.416Z,7.83
2018-08-16T07:20:14.025Z,7.75
2018-08-16T07:20:48.011Z,7.90
2018-08-16T07:21:21.558Z,7.97
2018-08-16T07:21:55.144Z,8.35
2018-08-16T07:22:28.645Z,8.48
2018-08-16T07:23:02.234Z,7.72
2018-08-16T07:23:36.477Z,7.90
2018-08-16T07:24:10.070Z,8.58
2018-08-16T07:24:43.613Z,8.05
2018-08-16T07:25:17.972Z,7.53
2018-08-16T07:25:52.348Z,8.63
2018-08-16T07:26:26.638Z,7.67
2018-08-16T07:27:00.253Z,8.28
2018-08-16T07:27:33.851Z,8.13
2018-08-16T07:28:07.555Z,7.90
2018-08-16T07:28:41.799Z,8.00
2018-08-16T07:29:15.369Z,8.78
2018-08-16T07:29:48.989Z,8.30
2018-08-16T07:30:22.623Z,8.13
2018-08-16T07:30:56.220Z,9.30
2018-08-16T07:31:29.825Z,9.00